createdAt,value
2019-03-19T00:02:18.259Z,5.63
2019-03-19T00:04:45.807Z,4.87
2019-03-19T00:07:13.138Z,5.30
2019-03-19T00:09:40.570Z,5.47
2019-03-19T00:12:08.220Z,5.40
2019-03-19T00:14:35.648Z,5.63
2019-03-19T00:17:03.046Z,6.27
2019-03-19T00:19:30.328Z,5.30
2019-03-19T00:21:58.025Z,6.70
2019-03-19T00:24:25.308Z,6.33
2019-03-19T00:26:52.592Z,5.80
2019-03-19T00:29:20.211Z,5.80
2019-03-19T00:58:09.833Z,5.90
2019-03-19T01:00:37.536Z,6.23
2019-03-19T01:03:04.920Z,7.00
2019-03-19T01:05:32.392Z,7.40
2019-03-19T01:08:00.219Z,6.77
2019-03-19T01:10:27.557Z,7.00
2019-03-19T01:12:55.247Z,6.90
2019-03-19T01:15:22.641Z,6.57
2019-03-19T01:17:50.035Z,7.10
2019-03-19T01:20:17.445Z,7.40
2019-03-19T01:22:44.839Z,7.17
2019-03-19T01:25:12.155Z,6.67
2019-03-19T01:27:39.830Z,7.20
2019-03-19T01:30:07.898Z,6.47
2019-03-19T01:32:35.306Z,6.70
2019-03-19T01:35:03.246Z,6.63
2019-03-19T01:37:30.726Z,6.13
2019-03-19T01:39:58.134Z,6.47
2019-03-19T01:42:25.414Z,7.40
2019-03-19T01:44:52.730Z,7.13
2019-03-19T01:47:20.150Z,6.73
2019-03-19T01:49:47.474Z,7.03
2019-03-19T01:52:14.843Z,6.37
2019-03-19T01:54:42.136Z,6.73
2019-03-19T01:57:09.725Z,7.20
2019-03-19T01:59:37.016Z,6.90
2019-03-19T02:02:04.656Z,6.77
2019-03-19T02:04:31.976Z,7.27
2019-03-19T02:06:59.397Z,6.13
2019-03-19T02:09:26.787Z,6.20
2019-03-19T02:11:54.432Z,6.83
2019-03-19T02:14:21.869Z,6.60
2019-03-19T02:16:49.266Z,6.97
2019-03-19T02:19:16.663Z,7.07
2019-03-19T02:21:43.945Z,6.77
2019-03-19T02:24:11.357Z,7.10
2019-03-19T02:26:39.023Z,6.83
2019-03-19T02:29:06.413Z,7.50
2019-03-19T02:31:33.817Z,7.73
2019-03-19T02:34:01.183Z,7.33
2019-03-19T02:36:28.601Z,6.63
2019-03-19T02:38:56.014Z,6.67
2019-03-19T02:41:23.949Z,6.57
2019-03-19T02:43:51.334Z,6.80
2019-03-19T02:46:19.127Z,7.30
2019-03-19T02:48:46.552Z,7.17
2019-03-19T02:51:13.922Z,6.80
2019-03-19T02:53:41.421Z,6.50
2019-03-19T02:56:08.717Z,7.30
2019-03-19T02:58:36.362Z,6.90
2019-03-19T03:01:04.495Z,7.30
2019-03-19T03:03:31.890Z,6.97
2019-03-19T03:05:59.219Z,6.80
2019-03-19T03:08:26.588Z,7.20
2019-03-19T03:10:54.031Z,6.63
2019-03-19T03:13:21.649Z,7.10
2019-03-19T03:15:48.979Z,6.97
2019-03-19T03:18:16.625Z,6.53
2019-03-19T03:20:44.546Z,7.03
2019-03-19T03:23:11.965Z,7.17
2019-03-19T03:25:39.647Z,7.40
2019-03-19T03:28:06.951Z,7.47
2019-03-19T03:30:34.354Z,8.27
2019-03-19T03:33:02.264Z,6.80
2019-03-19T03:35:29.666Z,8.07
2019-03-19T03:37:57.058Z,6.77
2019-03-19T03:40:24.338Z,7.47
2019-03-19T03:42:51.738Z,7.00
2019-03-19T03:45:19.068Z,7.30
2019-03-19T03:47:46.719Z,6.77
2019-03-19T03:50:14.121Z,6.63
2019-03-19T03:52:41.453Z,6.53
2019-03-19T03:55:09.303Z,6.87
2019-03-19T03:57:36.957Z,6.90
2019-03-19T04:00:06.033Z,7.43
2019-03-19T04:02:33.689Z,6.93
2019-03-19T04:05:01.071Z,7.07
2019-03-19T04:07:28.742Z,6.57
2019-03-19T04:09:56.131Z,6.37
2019-03-19T04:12:23.671Z,6.63
2019-03-19T04:14:50.986Z,7.33
2019-03-19T04:17:18.355Z,6.97
2019-03-19T04:19:45.927Z,6.53
2019-03-19T04:22:15.767Z,7.73
2019-03-19T04:24:42.402Z,6.57
2019-03-19T04:27:15.838Z,6.63
2019-03-19T04:29:39.012Z,7.70
2019-03-19T04:32:06.329Z,6.10
2019-03-19T04:34:33.758Z,6.80
2019-03-19T04:37:01.030Z,6.47
2019-03-19T04:39:28.327Z,6.47
2019-03-19T04:41:55.680Z,6.57
2019-03-19T04:44:23.032Z,9.17
2019-03-19T04:46:50.446Z,6.10
2019-03-19T04:49:18.396Z,6.47
2019-03-19T04:51:45.685Z,6.60
2019-03-19T04:54:12.937Z,6.47
2019-03-19T04:56:40.589Z,6.90
2019-03-19T04:59:08.155Z,7.03
2019-03-19T05:01:35.450Z,6.47
2019-03-19T05:04:03.332Z,6.73
2019-03-19T05:06:30.940Z,6.80
2019-03-19T05:08:58.578Z,7.30
2019-03-19T05:11:25.889Z,6.30
2019-03-19T05:13:53.188Z,6.53
2019-03-19T05:16:20.895Z,6.13
2019-03-19T05:18:48.287Z,7.80
2019-03-19T05:21:15.605Z,6.53
2019-03-19T05:23:43.199Z,6.43
2019-03-19T05:26:11.021Z,6.37
2019-03-19T05:28:38.598Z,6.23
2019-03-19T05:31:05.917Z,6.03
2019-03-19T05:33:33.199Z,6.70
2019-03-19T05:36:00.836Z,6.67
2019-03-19T05:38:28.167Z,7.03
2019-03-19T05:40:55.460Z,6.67
2019-03-19T05:43:22.783Z,7.17
2019-03-19T05:45:50.365Z,6.50
2019-03-19T05:48:18.032Z,7.27
2019-03-19T05:50:45.379Z,6.67
2019-03-19T05:53:12.696Z,7.63
2019-03-19T05:55:40.097Z,8.23
2019-03-19T05:58:07.439Z,7.47
2019-03-19T06:00:35.516Z,7.73
2019-03-19T06:03:03.677Z,7.40
2019-03-19T06:05:31.039Z,6.50
2019-03-19T06:07:58.354Z,8.07
2019-03-19T06:10:26.207Z,7.77
2019-03-19T06:12:53.630Z,7.33
2019-03-19T06:15:21.392Z,7.00
2019-03-19T06:17:48.994Z,7.50
2019-03-19T06:20:16.352Z,7.63
2019-03-19T06:22:43.933Z,7.97
2019-03-19T06:25:12.416Z,8.00
2019-03-19T06:27:39.801Z,8.23
2019-03-19T06:30:10.234Z,9.80
2019-03-19T06:32:37.776Z,8.30
2019-03-19T06:35:06.397Z,8.37
2019-03-19T06:37:33.815Z,8.87
2019-03-19T06:40:01.446Z,8.53
2019-03-19T06:42:28.725Z,9.50
2019-03-19T06:44:56.032Z,8.20
2019-03-19T06:47:23.432Z,8.40
2019-03-19T06:49:50.724Z,8.73
2019-03-19T06:52:18.313Z,9.13
2019-03-19T06:54:45.992Z,8.90
2019-03-19T06:57:13.378Z,8.87
2019-03-19T06:59:40.774Z,9.43
2019-03-19T07:02:08.609Z,9.67
2019-03-19T07:04:35.984Z,9.40
2019-03-19T07:07:03.815Z,9.60
2019-03-19T07:09:31.205Z,9.57
2019-03-19T07:11:58.606Z,8.87
2019-03-19T07:14:26.089Z,10.13
2019-03-19T07:16:53.414Z,10.17
2019-03-19T07:19:20.835Z,9.47
2019-03-19T07:21:48.207Z,9.37
2019-03-19T07:24:16.041Z,9.37
2019-03-19T07:26:43.427Z,8.93
2019-03-19T07:29:10.847Z,9.33
2019-03-19T07:31:38.678Z,10.60
2019-03-19T07:34:05.978Z,9.77
2019-03-19T07:36:33.374Z,9.40
2019-03-19T07:39:00.856Z,10.27
2019-03-19T07:41:28.131Z,9.40
2019-03-19T07:43:55.406Z,9.53
2019-03-19T07:46:22.853Z,9.10
2019-03-19T07:48:50.233Z,9.57
2019-03-19T07:51:17.533Z,10.03
2019-03-19T07:53:45.103Z,9.93
2019-03-19T07:56:12.682Z,9.27
2019-03-19T07:58:45.109Z,9.37
2019-03-19T08:01:09.216Z,9.97
2019-03-19T08:03:36.606Z,10.17
2019-03-19T08:06:04.141Z,10.90
2019-03-19T08:08:31.810Z,10.27
2019-03-19T08:10:59.218Z,10.33
2019-03-19T08:13:26.628Z,10.27
2019-03-19T08:15:53.929Z,9.90
2019-03-19T08:18:21.242Z,10.30
2019-03-19T08:20:48.665Z,11.07
2019-03-19T08:23:16.010Z,10.00
2019-03-19T08:25:43.419Z,10.87
2019-03-19T08:28:10.754Z,13.20
2019-03-19T08:30:38.372Z,10.97
2019-03-19T08:33:05.753Z,10.60
2019-03-19T08:35:33.139Z,14.53
2019-03-19T08:38:00.513Z,10.10
2019-03-19T08:40:28.189Z,9.57
2019-03-19T08:42:58.195Z,10.70
2019-03-19T08:45:25.493Z,9.70
2019-03-19T08:47:53.815Z,8.93
2019-03-19T08:50:21.540Z,9.97
2019-03-19T08:52:48.833Z,8.40
2019-03-19T08:55:16.133Z,16.30
2019-03-19T08:57:43.426Z,18.03
2019-03-19T09:00:13.283Z,11.43
2019-03-19T09:02:40.607Z,8.90
2019-03-19T09:05:08.235Z,8.80
2019-03-19T09:07:35.835Z,8.67
2019-03-19T09:10:04.008Z,8.77
2019-03-19T09:12:31.644Z,7.70
2019-03-19T09:14:58.963Z,7.57
2019-03-19T09:17:26.283Z,7.77
2019-03-19T09:19:53.666Z,7.03
2019-03-19T09:22:21.080Z,7.90
2019-03-19T09:24:48.767Z,6.53
2019-03-19T09:27:16.187Z,6.70
2019-03-19T09:29:43.511Z,6.30
2019-03-19T09:32:10.896Z,6.13
2019-03-19T09:34:38.305Z,7.03
2019-03-19T09:37:06.244Z,5.33
2019-03-19T09:39:33.595Z,6.07
2019-03-19T09:42:01.244Z,6.20
2019-03-19T09:44:28.929Z,5.70
2019-03-19T09:46:56.315Z,5.80
2019-03-19T09:49:23.700Z,4.87
2019-03-19T09:51:51.119Z,5.67
2019-03-19T09:54:18.709Z,4.77
2019-03-19T09:56:46.068Z,5.40
2019-03-19T09:59:13.381Z,5.50
2019-03-19T10:01:40.966Z,5.50
2019-03-19T10:04:08.692Z,5.17
2019-03-19T10:06:36.097Z,6.90
2019-03-19T10:09:06.688Z,5.13
2019-03-19T10:11:34.003Z,4.57
2019-03-19T10:14:01.670Z,4.20
2019-03-19T10:16:29.357Z,5.33
2019-03-19T10:18:56.713Z,4.80
2019-03-19T10:21:24.132Z,5.07
2019-03-19T10:23:51.573Z,5.63
2019-03-19T10:26:18.892Z,4.80
2019-03-19T10:28:46.301Z,4.70
2019-03-19T10:31:13.947Z,5.53
2019-03-19T10:33:41.272Z,4.53
2019-03-19T10:36:08.695Z,4.77
2019-03-19T10:38:36.097Z,4.83
2019-03-19T10:41:03.616Z,5.33
2019-03-19T10:43:30.967Z,5.03
2019-03-19T10:45:58.184Z,4.83
2019-03-19T10:48:25.885Z,4.13
2019-03-19T10:50:53.337Z,3.90
2019-03-19T10:53:20.764Z,3.80
2019-03-19T10:55:48.138Z,3.83
2019-03-19T10:58:15.574Z,3.50
2019-03-19T11:00:42.901Z,5.80
2019-03-19T11:03:10.318Z,3.87
2019-03-19T11:05:37.994Z,3.57
2019-03-19T11:08:06.360Z,3.43
2019-03-19T11:10:34.213Z,3.40
2019-03-19T11:13:01.530Z,3.90
2019-03-19T11:15:31.391Z,3.43
2019-03-19T11:17:58.257Z,4.23
2019-03-19T11:20:25.838Z,4.03
2019-03-19T11:22:53.587Z,4.80
2019-03-19T11:25:21.317Z,5.20
2019-03-19T11:27:48.619Z,3.90
2019-03-19T11:30:20.521Z,2.80
2019-03-19T11:32:47.849Z,2.17
2019-03-19T11:35:15.634Z,2.93
2019-03-19T11:37:43.054Z,3.33
2019-03-19T11:40:11.210Z,3.00
2019-03-19T11:42:38.535Z,3.63
2019-03-19T11:45:06.836Z,3.07
2019-03-19T11:47:34.371Z,4.63
2019-03-19T11:50:01.798Z,4.40
2019-03-19T11:52:29.077Z,3.60
2019-03-19T11:54:56.737Z,3.70
2019-03-19T11:57:24.027Z,3.40
2019-03-19T11:59:51.324Z,3.30
2019-03-19T12:02:25.830Z,3.90
2019-03-19T12:04:47.818Z,3.80
2019-03-19T12:07:15.152Z,3.20
2019-03-19T12:09:42.545Z,4.30
2019-03-19T12:12:11.641Z,3.80
2019-03-19T12:14:39.165Z,4.13
2019-03-19T12:17:06.676Z,3.77
2019-03-19T12:19:33.986Z,4.23
2019-03-19T12:22:01.562Z,3.60
2019-03-19T12:24:29.163Z,3.80
2019-03-19T12:26:56.541Z,3.73
2019-03-19T12:29:23.868Z,4.17
2019-03-19T12:31:51.525Z,3.90
2019-03-19T12:34:18.925Z,4.47
2019-03-19T12:36:46.219Z,4.80
2019-03-19T12:39:13.592Z,4.50
2019-03-19T12:41:40.901Z,4.17
2019-03-19T12:44:08.180Z,4.63
2019-03-19T12:46:35.997Z,4.53
2019-03-19T12:49:03.358Z,4.17
2019-03-19T12:51:30.683Z,3.87
2019-03-19T12:53:58.009Z,3.93
2019-03-19T12:56:25.620Z,3.80
2019-03-19T12:58:53.314Z,3.40
2019-03-19T13:01:21.185Z,3.53
2019-03-19T13:03:48.886Z,3.50
2019-03-19T13:06:16.281Z,4.07
2019-03-19T13:08:43.622Z,5.77
2019-03-19T13:11:11.023Z,3.53
2019-03-19T13:13:40.829Z,3.20
2019-03-19T13:16:07.629Z,2.23
2019-03-19T13:18:35.037Z,2.50
2019-03-19T13:21:02.621Z,2.63
2019-03-19T13:23:30.029Z,3.47
2019-03-19T13:25:57.351Z,2.57
2019-03-19T13:28:24.668Z,3.00
2019-03-19T13:30:52.518Z,3.17
2019-03-19T13:33:20.206Z,2.67
2019-03-19T13:35:47.682Z,2.17
2019-03-19T13:38:14.900Z,6.03
2019-03-19T13:40:42.182Z,2.83
2019-03-19T13:43:09.560Z,2.53
2019-03-19T13:45:37.391Z,2.57
2019-03-19T13:48:04.741Z,3.00
2019-03-19T13:50:32.417Z,2.20
2019-03-19T13:53:00.246Z,3.30
2019-03-19T13:55:28.234Z,2.63
2019-03-19T13:57:55.795Z,2.93
2019-03-19T14:00:23.072Z,3.20
2019-03-19T14:02:50.672Z,3.80
2019-03-19T14:05:18.509Z,4.83
2019-03-19T14:07:46.320Z,3.10
2019-03-19T14:10:13.920Z,3.00
2019-03-19T14:12:41.327Z,3.37
2019-03-19T14:15:11.012Z,2.47
2019-03-19T14:17:38.568Z,3.17
2019-03-19T14:20:07.663Z,2.77
2019-03-19T14:22:35.249Z,5.23
2019-03-19T14:25:02.835Z,3.27
2019-03-19T14:27:30.227Z,5.30
2019-03-19T14:29:57.807Z,2.77
2019-03-19T14:32:25.182Z,3.23
2019-03-19T14:34:52.500Z,3.00
2019-03-19T14:37:19.759Z,3.30
2019-03-19T14:39:47.053Z,2.70
2019-03-19T14:42:14.373Z,2.57
2019-03-19T14:44:41.902Z,2.50
2019-03-19T14:47:09.302Z,3.10
2019-03-19T14:49:46.282Z,3.10
2019-03-19T14:52:06.501Z,2.60
2019-03-19T14:54:34.077Z,5.23
2019-03-19T14:57:01.578Z,3.77
2019-03-19T14:59:28.865Z,3.13
2019-03-19T15:01:56.161Z,3.00
2019-03-19T15:04:23.755Z,6.10
2019-03-19T15:06:51.053Z,3.10
2019-03-19T15:09:18.628Z,2.80
2019-03-19T15:11:46.277Z,2.93
2019-03-19T15:14:13.835Z,2.87
2019-03-19T15:16:41.157Z,2.80
2019-03-19T15:19:08.823Z,2.87
2019-03-19T15:21:36.228Z,2.93
2019-03-19T15:24:03.932Z,2.80
2019-03-19T15:26:31.225Z,2.67
2019-03-19T15:28:58.564Z,2.93
2019-03-19T15:31:29.882Z,3.90
2019-03-19T15:33:55.169Z,4.30
2019-03-19T15:36:22.669Z,3.60
2019-03-19T15:38:50.295Z,3.20
2019-03-19T15:41:17.582Z,3.07
2019-03-19T15:43:44.928Z,3.33
2019-03-19T15:46:12.312Z,3.30
2019-03-19T15:48:39.620Z,3.67
2019-03-19T15:51:07.257Z,3.80
2019-03-19T15:53:34.867Z,3.90
2019-03-19T15:56:02.443Z,3.63
2019-03-19T15:58:29.816Z,3.33
2019-03-19T16:00:57.134Z,4.30
2019-03-19T16:03:24.821Z,4.13
2019-03-19T16:05:52.241Z,3.07
2019-03-19T16:08:19.973Z,3.20
2019-03-19T16:10:47.389Z,3.83
2019-03-19T16:13:14.801Z,3.70
2019-03-19T16:15:42.655Z,3.67
2019-03-19T16:18:10.265Z,3.53
2019-03-19T16:20:37.665Z,4.03
2019-03-19T16:23:05.032Z,3.17
2019-03-19T16:25:32.414Z,3.40
2019-03-19T16:27:59.711Z,3.90
2019-03-19T16:30:27.159Z,3.57
2019-03-19T16:32:54.843Z,3.73
2019-03-19T16:35:22.497Z,3.97
2019-03-19T16:37:50.110Z,4.13
2019-03-19T16:40:17.441Z,4.00
2019-03-19T16:42:44.819Z,4.10
2019-03-19T16:45:12.630Z,4.10
2019-03-19T16:47:40.289Z,3.57
2019-03-19T16:50:08.785Z,4.13
2019-03-19T16:52:36.118Z,4.30
2019-03-19T16:55:03.945Z,4.33
2019-03-19T16:57:31.611Z,3.77
2019-03-19T16:59:59.365Z,3.13
2019-03-19T17:02:26.831Z,4.23
2019-03-19T17:04:54.443Z,3.70
2019-03-19T17:07:22.103Z,4.33
2019-03-19T17:09:49.468Z,4.27
2019-03-19T17:12:17.046Z,4.67
2019-03-19T17:14:44.449Z,3.87
2019-03-19T17:17:12.327Z,3.97
2019-03-19T17:19:39.655Z,3.73
2019-03-19T17:22:07.067Z,3.57
2019-03-19T17:24:34.361Z,3.47
2019-03-19T17:27:01.939Z,3.70
2019-03-19T17:29:29.416Z,3.80
2019-03-19T17:31:57.124Z,3.63
2019-03-19T17:34:24.510Z,3.83
2019-03-19T17:36:51.836Z,3.77
2019-03-19T17:39:19.158Z,4.13
2019-03-19T17:41:46.814Z,4.13
2019-03-19T17:44:14.111Z,3.63
2019-03-19T17:46:41.683Z,4.00
2019-03-19T17:49:09.278Z,4.63
2019-03-19T17:51:36.904Z,3.73
2019-03-19T17:54:04.352Z,4.00
2019-03-19T17:56:31.698Z,3.83
2019-03-19T17:58:59.161Z,4.93
2019-03-19T18:01:26.530Z,5.13
2019-03-19T18:03:54.355Z,5.07
2019-03-19T18:06:21.775Z,4.80
2019-03-19T18:08:49.060Z,5.00
2019-03-19T18:11:16.368Z,4.47
2019-03-19T18:13:43.666Z,4.70
2019-03-19T18:16:11.116Z,5.43
2019-03-19T18:18:38.756Z,5.37
2019-03-19T18:21:06.697Z,5.83
2019-03-19T18:23:34.138Z,5.53
2019-03-19T18:26:01.502Z,5.57
2019-03-19T18:28:28.960Z,5.30
2019-03-19T18:30:56.518Z,5.27
2019-03-19T18:33:24.314Z,4.80
2019-03-19T18:35:55.114Z,5.23
2019-03-19T18:38:20.901Z,4.93
2019-03-19T18:40:48.220Z,5.23
2019-03-19T18:43:15.848Z,5.93
2019-03-19T18:45:43.152Z,5.63
2019-03-19T18:48:10.465Z,5.83
2019-03-19T18:50:37.751Z,6.80
2019-03-19T18:53:05.227Z,7.17
2019-03-19T18:55:32.897Z,6.83
2019-03-19T18:58:00.297Z,7.40
2019-03-19T19:00:27.670Z,7.27
2019-03-19T19:02:55.265Z,7.70
2019-03-19T19:05:22.614Z,6.63
2019-03-19T19:07:50.022Z,7.20
2019-03-19T19:10:17.596Z,6.90
2019-03-19T19:12:44.989Z,7.20
2019-03-19T19:15:13.167Z,6.90
2019-03-19T19:17:40.474Z,7.47
2019-03-19T19:20:09.201Z,7.03
2019-03-19T19:22:36.791Z,7.20
2019-03-19T19:25:04.905Z,7.77
2019-03-19T19:27:32.327Z,7.60
2019-03-19T19:29:59.767Z,8.03
2019-03-19T19:32:27.188Z,9.10
2019-03-19T19:34:54.573Z,8.57
2019-03-19T19:37:21.903Z,7.73
2019-03-19T19:39:49.208Z,8.83
2019-03-19T19:42:16.626Z,8.90
2019-03-19T19:44:44.338Z,8.60
2019-03-19T19:47:11.666Z,7.40
2019-03-19T19:49:39.111Z,8.20
2019-03-19T19:52:06.600Z,7.53
2019-03-19T19:54:34.531Z,8.00
2019-03-19T19:57:02.146Z,7.03
2019-03-19T19:59:29.603Z,7.53
2019-03-19T20:01:57.004Z,7.33
2019-03-19T20:04:24.343Z,8.10
2019-03-19T20:06:51.786Z,7.47
2019-03-19T20:09:19.223Z,8.30
2019-03-19T20:11:49.271Z,8.00
2019-03-19T20:14:17.188Z,7.70
2019-03-19T20:16:44.628Z,8.37
2019-03-19T20:19:12.049Z,8.33
2019-03-19T20:21:40.317Z,8.77
2019-03-19T20:24:08.089Z,8.53
2019-03-19T20:26:35.409Z,10.10
2019-03-19T20:29:02.860Z,9.33
2019-03-19T20:31:30.326Z,9.00
2019-03-19T20:33:57.887Z,8.83
2019-03-19T20:36:25.297Z,8.93
2019-03-19T20:38:52.780Z,8.80
2019-03-19T20:41:20.175Z,10.13
2019-03-19T20:43:47.877Z,8.17
2019-03-19T20:46:15.585Z,8.50
2019-03-19T20:48:43.062Z,8.63
2019-03-19T20:51:11.064Z,8.27
2019-03-19T20:53:38.543Z,9.37
2019-03-19T20:56:06.199Z,8.90
2019-03-19T20:58:43.061Z,8.47
2019-03-19T21:01:03.194Z,8.97
2019-03-19T21:03:35.819Z,8.87
2019-03-19T21:06:00.092Z,8.07
2019-03-19T21:08:27.434Z,7.80
2019-03-19T21:10:54.811Z,8.63
2019-03-19T21:13:22.459Z,8.67
2019-03-19T21:15:50.190Z,7.87
2019-03-19T21:18:17.633Z,8.13
2019-03-19T21:20:44.964Z,7.80
2019-03-19T21:23:12.322Z,9.00
2019-03-19T21:25:39.645Z,8.40
2019-03-19T21:28:13.891Z,7.80
2019-03-19T21:30:36.902Z,8.10
2019-03-19T21:33:04.251Z,8.03
2019-03-19T21:35:31.604Z,9.97
2019-03-19T21:37:59.033Z,7.97
2019-03-19T21:40:26.444Z,8.70
2019-03-19T21:42:53.769Z,7.80
2019-03-19T21:45:21.370Z,8.47
2019-03-19T21:47:48.834Z,7.47
2019-03-19T21:50:16.279Z,7.47
2019-03-19T21:52:43.706Z,8.10
2019-03-19T21:55:11.362Z,8.13
2019-03-19T21:57:38.747Z,8.47
2019-03-19T22:00:08.798Z,7.77
2019-03-19T22:02:38.077Z,7.30
2019-03-19T22:05:05.794Z,8.00
2019-03-19T22:07:33.109Z,7.00
2019-03-19T22:10:00.813Z,8.00
2019-03-19T22:12:28.188Z,7.10
2019-03-19T22:14:55.760Z,8.10
2019-03-19T22:17:23.065Z,7.50
2019-03-19T22:19:50.372Z,7.87
2019-03-19T22:22:17.753Z,8.30
2019-03-19T22:24:45.254Z,7.77
2019-03-19T22:27:12.534Z,7.27
2019-03-19T22:29:39.827Z,8.23
2019-03-19T22:32:07.417Z,8.07
2019-03-19T22:34:34.729Z,7.60
2019-03-19T22:37:02.073Z,8.03
2019-03-19T22:39:29.483Z,8.37
2019-03-19T22:41:57.095Z,7.27
2019-03-19T22:44:24.666Z,7.53
2019-03-19T22:46:52.231Z,7.97
2019-03-19T22:49:19.823Z,8.10
2019-03-19T22:51:47.198Z,8.13
2019-03-19T22:54:17.424Z,8.30
2019-03-19T22:56:45.110Z,7.73
2019-03-19T22:59:13.054Z,8.10
2019-03-19T23:01:40.369Z,8.50
2019-03-19T23:04:07.759Z,8.67
2019-03-19T23:06:35.297Z,8.27
2019-03-19T23:09:03.415Z,8.03
2019-03-19T23:11:30.835Z,7.90
2019-03-19T23:13:58.167Z,8.40
2019-03-19T23:16:25.525Z,7.73
2019-03-19T23:18:52.895Z,7.67
2019-03-19T23:21:20.454Z,8.47
2019-03-19T23:23:47.764Z,7.57
2019-03-19T23:26:15.242Z,8.67
2019-03-19T23:28:42.534Z,8.60
2019-03-19T23:31:09.944Z,9.07
2019-03-19T23:33:37.246Z,7.83
2019-03-19T23:36:05.189Z,8.60
2019-03-19T23:38:32.646Z,8.70
2019-03-19T23:41:00.103Z,8.30
2019-03-19T23:43:27.490Z,8.47
2019-03-19T23:45:54.771Z,8.33
2019-03-19T23:48:22.479Z,7.90
2019-03-19T23:50:49.963Z,8.13
2019-03-19T23:53:17.285Z,8.47
2019-03-19T23:55:44.844Z,8.13
2019-03-19T23:58:12.261Z,8.27
